createdAt,value
2022-08-28T00:01:33.805Z,22.40
2022-08-28T00:04:57.533Z,22.40
2022-08-28T00:08:21.611Z,22.40
2022-08-28T00:11:47.019Z,22.40
2022-08-28T00:15:14.626Z,22.50
2022-08-28T00:18:38.575Z,22.50
2022-08-28T00:22:04.153Z,22.50
2022-08-28T00:25:30.817Z,22.50
2022-08-28T00:28:55.682Z,22.50
2022-08-28T00:32:23.355Z,22.40
2022-08-28T00:35:48.579Z,22.40
2022-08-28T00:39:12.564Z,22.40
2022-08-28T00:42:38.302Z,22.40
2022-08-28T00:46:06.557Z,22.50
2022-08-28T00:49:35.811Z,22.50
2022-08-28T00:53:02.362Z,22.50
2022-08-28T00:56:27.398Z,22.60
2022-08-28T00:59:50.967Z,22.60
2022-08-28T01:03:18.067Z,22.70
2022-08-28T01:06:41.646Z,22.70
2022-08-28T01:10:11.067Z,22.70
2022-08-28T01:13:37.473Z,22.70
2022-08-28T01:17:02.358Z,22.60
2022-08-28T01:20:32.613Z,22.60
2022-08-28T01:24:03.434Z,22.60
2022-08-28T01:27:26.918Z,22.50
2022-08-28T01:30:50.521Z,22.50
2022-08-28T01:34:14.694Z,22.50
2022-08-28T01:37:38.669Z,22.40
2022-08-28T01:41:03.546Z,22.40
2022-08-28T01:44:29.275Z,22.30
2022-08-28T01:47:52.758Z,22.30
2022-08-28T01:51:19.428Z,22.20
2022-08-28T01:54:45.029Z,22.20
2022-08-28T01:58:11.123Z,22.20
2022-08-28T02:01:35.054Z,22.20
2022-08-28T02:04:58.602Z,22.20
2022-08-28T02:08:22.463Z,22.20
2022-08-28T02:11:46.618Z,22.20
2022-08-28T02:15:13.221Z,22.30
2022-08-28T02:18:37.798Z,22.30
2022-08-28T02:22:01.273Z,22.30
2022-08-28T02:25:25.694Z,22.40
2022-08-28T02:28:49.942Z,22.40
2022-08-28T02:32:14.870Z,22.50
2022-08-28T02:35:40.417Z,22.50
2022-08-28T02:39:04.038Z,22.60
2022-08-28T02:42:28.525Z,22.60
2022-08-28T02:45:52.097Z,22.60
2022-08-28T02:49:16.998Z,22.60
2022-08-28T02:52:41.770Z,22.70
2022-08-28T02:56:06.045Z,22.70
2022-08-28T02:59:29.571Z,22.80
2022-08-28T03:02:54.407Z,22.70
2022-08-28T03:06:19.331Z,22.80
2022-08-28T03:09:44.089Z,22.80
2022-08-28T03:13:07.553Z,22.80
2022-08-28T03:16:32.356Z,22.80
2022-08-28T03:19:56.034Z,22.80
2022-08-28T03:23:30.292Z,22.80
2022-08-28T03:26:53.770Z,22.80
2022-08-28T03:30:18.382Z,22.80
2022-08-28T03:33:42.539Z,22.80
2022-08-28T03:37:06.338Z,22.80
2022-08-28T03:40:33.146Z,22.80
2022-08-28T03:43:58.170Z,22.80
2022-08-28T03:47:22.531Z,22.90
2022-08-28T03:50:46.271Z,23.50
2022-08-28T03:54:11.204Z,22.80
2022-08-28T03:57:37.404Z,22.80
2022-08-28T04:01:00.827Z,22.80
2022-08-28T04:04:24.238Z,22.90
2022-08-28T04:07:48.154Z,22.80
2022-08-28T04:11:11.561Z,22.80
2022-08-28T04:14:37.234Z,22.80
2022-08-28T04:18:00.722Z,22.80
2022-08-28T04:21:26.062Z,22.80
2022-08-28T04:24:49.582Z,22.80
2022-08-28T04:28:13.226Z,22.70
2022-08-28T04:31:38.140Z,22.70
2022-08-28T04:35:02.056Z,22.70
2022-08-28T04:38:25.819Z,22.70
2022-08-28T04:41:50.232Z,22.70
2022-08-28T04:45:13.828Z,22.60
2022-08-28T04:48:40.087Z,22.70
2022-08-28T04:52:04.651Z,22.70
2022-08-28T04:55:48.591Z,22.70
2022-08-28T04:59:12.674Z,22.70
2022-08-28T05:02:36.280Z,22.70
2022-08-28T05:06:01.182Z,22.70
2022-08-28T05:09:24.746Z,22.70
2022-08-28T05:12:48.330Z,22.70
2022-08-28T05:16:12.163Z,22.70
2022-08-28T05:19:37.870Z,22.70
2022-08-28T05:23:02.802Z,22.70
2022-08-28T05:26:28.308Z,22.80
2022-08-28T05:29:52.757Z,22.70
2022-08-28T05:33:16.981Z,22.80
2022-08-28T05:36:41.093Z,22.70
2022-08-28T05:40:07.506Z,22.80
2022-08-28T05:43:32.434Z,22.80
2022-08-28T05:46:56.063Z,22.80
2022-08-28T05:50:20.093Z,22.80
2022-08-28T05:53:46.327Z,22.80
2022-08-28T05:57:11.171Z,22.90
2022-08-28T06:00:34.654Z,22.90
2022-08-28T06:04:02.189Z,22.90
2022-08-28T06:07:25.946Z,22.90
2022-08-28T06:10:51.035Z,22.90
2022-08-28T06:14:20.529Z,22.90
2022-08-28T06:17:44.027Z,23.00
2022-08-28T06:21:07.726Z,23.00
2022-08-28T06:24:32.779Z,23.00
2022-08-28T06:27:56.250Z,23.10
2022-08-28T06:31:23.931Z,23.10
2022-08-28T06:34:48.874Z,23.10
2022-08-28T06:38:13.235Z,23.10
2022-08-28T06:41:40.932Z,23.20
2022-08-28T06:45:05.427Z,23.20
2022-08-28T06:48:30.477Z,23.20
2022-08-28T06:51:54.146Z,23.30
2022-08-28T06:55:18.186Z,23.30
2022-08-28T06:58:50.052Z,23.40
2022-08-28T07:02:14.083Z,23.50
2022-08-28T07:05:39.044Z,23.50
2022-08-28T07:09:05.217Z,23.60
2022-08-28T07:12:28.742Z,23.60
2022-08-28T07:15:53.198Z,23.70
2022-08-28T07:19:17.276Z,23.80
2022-08-28T07:22:42.277Z,23.80
2022-08-28T07:26:08.446Z,22.70
2022-08-28T07:29:31.962Z,23.90
2022-08-28T07:32:55.442Z,24.00
2022-08-28T07:36:29.407Z,24.10
2022-08-28T07:39:55.300Z,24.10
2022-08-28T07:43:37.001Z,24.20
2022-08-28T07:47:05.552Z,24.20
2022-08-28T07:50:29.068Z,24.20
2022-08-28T07:53:52.914Z,24.30
2022-08-28T07:57:20.495Z,24.30
2022-08-28T08:00:46.613Z,24.30
2022-08-28T08:04:12.510Z,24.30
2022-08-28T08:07:39.724Z,24.30
2022-08-28T08:11:11.191Z,24.30
2022-08-28T08:14:36.775Z,24.40
2022-08-28T08:18:00.239Z,24.50
2022-08-28T08:21:29.598Z,24.50
2022-08-28T08:24:55.434Z,24.60
2022-08-28T08:28:19.008Z,24.80
2022-08-28T08:31:44.184Z,24.80
2022-08-28T08:35:08.475Z,24.90
2022-08-28T08:38:33.646Z,25.00
2022-08-28T08:42:01.676Z,25.10
2022-08-28T08:45:26.789Z,27.20
2022-08-28T08:48:53.121Z,25.40
2022-08-28T08:52:39.882Z,25.50
2022-08-28T08:56:06.883Z,25.60
2022-08-28T08:59:38.390Z,25.70
2022-08-28T09:03:10.561Z,25.80
2022-08-28T09:06:45.883Z,25.90
2022-08-28T09:10:15.574Z,26.20
2022-08-28T09:13:56.239Z,26.30
2022-08-28T09:17:24.451Z,26.40
2022-08-28T09:20:52.831Z,26.60
2022-08-28T09:24:23.831Z,26.80
2022-08-28T09:27:52.619Z,27.00
2022-08-28T09:31:31.586Z,27.40
2022-08-28T09:35:07.861Z,27.80
2022-08-28T09:38:31.419Z,28.50
2022-08-28T09:42:32.912Z,29.10
2022-08-28T09:46:01.775Z,29.60
2022-08-28T09:49:29.692Z,30.00
2022-08-28T09:52:57.090Z,30.30
2022-08-28T09:56:28.466Z,30.50
2022-08-28T09:59:53.359Z,30.60
2022-08-28T10:03:22.658Z,30.50
2022-08-28T10:06:53.626Z,30.40
2022-08-28T10:10:28.779Z,30.30
2022-08-28T10:14:12.967Z,30.20
2022-08-28T10:17:55.048Z,30.10
2022-08-28T10:21:26.534Z,30.30
2022-08-28T10:25:21.947Z,30.70
2022-08-28T10:29:08.846Z,31.10
2022-08-28T10:32:59.554Z,31.40
2022-08-28T10:36:34.794Z,31.60
2022-08-28T10:40:04.721Z,31.70
2022-08-28T10:43:36.399Z,31.70
2022-08-28T10:47:01.163Z,31.90
2022-08-28T10:50:31.057Z,32.20
2022-08-28T10:54:03.209Z,32.40
2022-08-28T10:57:39.479Z,32.60
2022-08-28T11:01:09.903Z,33.00
2022-08-28T11:04:33.763Z,33.20
2022-08-28T11:08:05.169Z,33.50
2022-08-28T11:11:46.767Z,33.80
2022-08-28T11:15:53.451Z,34.00
2022-08-28T11:20:08.349Z,34.40
2022-08-28T11:23:43.320Z,34.70
2022-08-28T11:27:23.739Z,34.80
2022-08-28T11:30:50.877Z,34.70
2022-08-28T11:35:00.130Z,34.40
2022-08-28T11:39:21.198Z,34.10
2022-08-28T11:42:48.624Z,33.90
2022-08-28T11:46:26.609Z,34.10
2022-08-28T11:49:50.372Z,34.20
2022-08-28T11:53:44.717Z,34.40
2022-08-28T11:57:19.059Z,34.40
2022-08-28T12:00:57.694Z,34.50
2022-08-28T12:04:22.796Z,34.50
2022-08-28T12:07:49.251Z,34.60
2022-08-28T12:11:57.588Z,34.70
2022-08-28T12:15:43.096Z,34.90
2022-08-28T12:19:08.224Z,35.20
2022-08-28T12:22:49.904Z,35.30
2022-08-28T12:26:25.179Z,35.30
2022-08-28T12:29:54.250Z,35.20
2022-08-28T12:33:28.233Z,34.90
2022-08-28T12:36:58.943Z,34.50
2022-08-28T12:40:26.783Z,34.00
2022-08-28T12:43:57.903Z,33.50
2022-08-28T12:47:23.668Z,33.10
2022-08-28T12:50:47.459Z,33.00
2022-08-28T12:54:18.990Z,33.00
2022-08-28T12:57:46.710Z,33.10
2022-08-28T13:01:15.851Z,33.30
2022-08-28T13:04:46.752Z,33.50
2022-08-28T13:08:13.510Z,33.60
2022-08-28T13:11:41.018Z,33.60
2022-08-28T13:15:06.743Z,33.70
2022-08-28T13:18:51.334Z,33.70
2022-08-28T13:22:36.333Z,33.60
2022-08-28T13:26:05.218Z,33.60
2022-08-28T13:29:29.413Z,33.50
2022-08-28T13:33:00.167Z,33.50
2022-08-28T13:36:25.075Z,33.30
2022-08-28T13:39:50.187Z,33.00
2022-08-28T13:43:15.448Z,32.70
2022-08-28T13:46:39.759Z,32.50
2022-08-28T13:50:03.398Z,32.30
2022-08-28T13:53:26.934Z,32.20
2022-08-28T13:56:52.374Z,32.10
2022-08-28T14:00:17.527Z,32.00
2022-08-28T14:03:41.207Z,32.00
2022-08-28T14:07:05.070Z,32.00
2022-08-28T14:10:28.611Z,32.00
2022-08-28T14:13:55.650Z,31.80
2022-08-28T14:17:21.506Z,31.70
2022-08-28T14:20:45.152Z,31.50
2022-08-28T14:24:09.886Z,31.40
2022-08-28T14:27:33.783Z,31.20
2022-08-28T14:30:58.654Z,31.10
2022-08-28T14:34:24.035Z,31.00
2022-08-28T14:37:47.589Z,31.00
2022-08-28T14:41:12.137Z,30.90
2022-08-28T14:44:35.592Z,30.80
2022-08-28T14:48:00.530Z,30.70
2022-08-28T14:51:24.615Z,30.60
2022-08-28T14:54:48.159Z,30.50
2022-08-28T14:58:12.519Z,30.50
2022-08-28T15:01:41.268Z,30.40
2022-08-28T15:05:07.502Z,30.30
2022-08-28T15:08:31.718Z,30.30
2022-08-28T15:11:55.592Z,30.30
2022-08-28T15:15:20.229Z,30.30
2022-08-28T15:18:45.961Z,30.30
2022-08-28T15:22:11.646Z,30.30
2022-08-28T15:25:35.241Z,30.40
2022-08-28T15:29:02.306Z,30.40
2022-08-28T15:32:27.367Z,30.40
2022-08-28T15:35:50.963Z,30.40
2022-08-28T15:39:33.779Z,30.30
2022-08-28T15:42:57.281Z,30.30
2022-08-28T15:46:22.005Z,30.30
2022-08-28T15:49:49.931Z,30.30
2022-08-28T15:53:13.711Z,30.20
2022-08-28T15:56:43.053Z,30.20
2022-08-28T16:00:10.535Z,30.20
2022-08-28T16:03:35.476Z,30.20
2022-08-28T16:07:00.986Z,30.20
2022-08-28T16:10:25.738Z,30.20
2022-08-28T16:13:51.751Z,30.20
2022-08-28T16:17:15.290Z,30.10
2022-08-28T16:20:38.921Z,30.10
2022-08-28T16:24:02.633Z,30.00
2022-08-28T16:27:26.204Z,30.00
2022-08-28T16:30:52.169Z,29.90
2022-08-28T16:34:15.914Z,29.90
2022-08-28T16:37:43.979Z,29.80
2022-08-28T16:41:13.792Z,29.80
2022-08-28T16:44:37.463Z,29.70
2022-08-28T16:48:03.630Z,29.70
2022-08-28T16:51:27.730Z,29.60
2022-08-28T16:54:51.772Z,29.60
2022-08-28T16:58:17.140Z,29.50
2022-08-28T17:01:42.845Z,29.40
2022-08-28T17:05:10.008Z,29.30
2022-08-28T17:08:33.636Z,29.10
2022-08-28T17:11:57.234Z,29.00
2022-08-28T17:15:23.283Z,28.90
2022-08-28T17:18:52.590Z,28.90
2022-08-28T17:22:32.863Z,28.80
2022-08-28T17:25:56.373Z,28.70
2022-08-28T17:29:19.906Z,28.60
2022-08-28T17:32:43.650Z,28.60
2022-08-28T17:36:21.324Z,28.50
2022-08-28T17:39:54.713Z,28.40
2022-08-28T17:43:18.639Z,28.40
2022-08-28T17:46:42.226Z,28.30
2022-08-28T17:50:07.739Z,28.20
2022-08-28T17:53:31.357Z,28.20
2022-08-28T17:56:56.659Z,28.10
2022-08-28T18:00:21.039Z,28.10
2022-08-28T18:03:53.270Z,28.00
2022-08-28T18:07:17.255Z,27.90
2022-08-28T18:10:41.456Z,27.80
2022-08-28T18:14:07.470Z,27.80
2022-08-28T18:17:30.994Z,27.70
2022-08-28T18:20:55.243Z,27.60
2022-08-28T18:24:18.849Z,27.60
2022-08-28T18:27:42.327Z,27.40
2022-08-28T18:31:08.470Z,27.40
2022-08-28T18:34:32.286Z,27.30
2022-08-28T18:37:56.847Z,27.20
2022-08-28T18:41:21.819Z,27.10
2022-08-28T18:44:52.584Z,27.00
2022-08-28T18:48:19.164Z,27.00
2022-08-28T18:51:44.724Z,26.90
2022-08-28T18:55:11.706Z,26.80
2022-08-28T18:58:36.129Z,26.70
2022-08-28T19:02:00.549Z,26.60
2022-08-28T19:05:26.277Z,26.50
2022-08-28T19:08:50.536Z,26.40
2022-08-28T19:12:14.480Z,26.40
2022-08-28T19:15:38.794Z,26.20
2022-08-28T19:19:04.587Z,26.20
2022-08-28T19:22:30.765Z,26.00
2022-08-28T19:25:54.797Z,25.90
2022-08-28T19:29:19.109Z,25.90
2022-08-28T19:32:43.534Z,25.80
2022-08-28T19:36:08.248Z,25.70
2022-08-28T19:39:34.479Z,25.70
2022-08-28T19:42:58.418Z,25.60
2022-08-28T19:46:24.516Z,25.50
2022-08-28T19:49:49.006Z,25.50
2022-08-28T19:53:13.357Z,25.30
2022-08-28T19:56:39.991Z,25.30
2022-08-28T20:00:05.727Z,25.30
2022-08-28T20:03:30.159Z,25.20
2022-08-28T20:06:54.019Z,25.10
2022-08-28T20:10:18.851Z,25.00
2022-08-28T20:13:44.018Z,25.00
2022-08-28T20:17:07.519Z,24.80
2022-08-28T20:20:31.072Z,24.80
2022-08-28T20:23:55.024Z,24.70
2022-08-28T20:27:18.603Z,24.70
2022-08-28T20:30:43.796Z,24.60
2022-08-28T20:34:08.116Z,24.50
2022-08-28T20:37:33.754Z,24.50
2022-08-28T20:41:08.844Z,24.40
2022-08-28T20:44:32.323Z,24.30
2022-08-28T20:47:57.250Z,24.30
2022-08-28T20:51:41.376Z,24.30
2022-08-28T20:55:07.512Z,24.20
2022-08-28T20:58:31.601Z,24.20
2022-08-28T21:01:56.333Z,24.10
2022-08-28T21:05:21.508Z,24.10
2022-08-28T21:08:45.003Z,24.10
2022-08-28T21:12:09.373Z,24.00
2022-08-28T21:15:33.113Z,24.00
2022-08-28T21:19:15.268Z,23.90
2022-08-28T21:22:42.818Z,23.90
2022-08-28T21:26:08.881Z,23.80
2022-08-28T21:29:32.331Z,23.80
2022-08-28T21:32:55.805Z,23.70
2022-08-28T21:36:20.219Z,23.70
2022-08-28T21:39:45.788Z,23.60
2022-08-28T21:43:09.240Z,23.60
2022-08-28T21:46:32.947Z,23.50
2022-08-28T21:49:58.529Z,23.40
2022-08-28T21:53:22.121Z,23.40
2022-08-28T21:56:47.129Z,23.40
2022-08-28T22:00:19.677Z,23.30
2022-08-28T22:03:44.195Z,23.30
2022-08-28T22:07:09.797Z,23.30
2022-08-28T22:10:36.394Z,23.30
2022-08-28T22:14:03.424Z,23.30
2022-08-28T22:17:27.119Z,23.20
2022-08-28T22:21:08.803Z,23.20
2022-08-28T22:24:32.548Z,23.20
2022-08-28T22:27:56.423Z,23.20
2022-08-28T22:31:21.381Z,23.20
2022-08-28T22:34:46.579Z,23.10
2022-08-28T22:38:11.097Z,23.10
2022-08-28T22:41:37.413Z,23.10
2022-08-28T22:45:01.786Z,23.00
2022-08-28T22:48:26.905Z,23.00
2022-08-28T22:51:50.635Z,22.90
2022-08-28T22:55:15.887Z,22.90
2022-08-28T22:58:40.867Z,22.80
2022-08-28T23:02:05.235Z,22.80
2022-08-28T23:05:30.552Z,22.70
2022-08-28T23:08:54.033Z,22.70
2022-08-28T23:12:18.011Z,22.60
2022-08-28T23:15:41.845Z,22.60
2022-08-28T23:19:09.100Z,22.50
2022-08-28T23:22:35.229Z,22.50
2022-08-28T23:25:58.709Z,22.40
2022-08-28T23:29:22.275Z,22.40
2022-08-28T23:32:46.725Z,22.30
2022-08-28T23:36:11.245Z,22.30
2022-08-28T23:39:36.329Z,22.30
2022-08-28T23:43:00.351Z,22.20
2022-08-28T23:46:23.939Z,22.20
2022-08-28T23:49:48.472Z,22.20
2022-08-28T23:53:12.823Z,22.10
2022-08-28T23:56:38.425Z,22.10
